Haci Arif Kaptan — TCQQ — position and weather

sailwx.info

Track history (hours):
 
Tides and Currents Weather Stations Pressure Air Temp Water Temp Dewpoint Dewpoint Depression Visibility Wind Speed Wind Dir Waves Ship Positions

Haci Arif Kaptan

Last reported at 2014-Oct-21 10:04 UTC. Time now 2014-Oct-21 13:29 UTC.
Position N 39°56' E 024°00'.

Length 130 m; draft 8.4 m.

Type: Cargo ship. MMSI: 271000494.

Date/timePositionNaut miles runAvg speedWind from/ knotsBaromVisibWave heightAir tempDewpointWater temp
2014-Oct-21 10:04N 39°56' E 024°00'4 6.9
2014-Oct-21 09:32N 39°56' E 024°05'7 6.9
2014-Oct-21 08:33N 39°57' E 024°14'8 6.9
2014-Oct-21 07:27N 39°57' E 024°24'7 7.1
2014-Oct-21 06:31N 39°58' E 024°32'7 7.4
2014-Oct-21 05:33N 39°60' E 024°41'8 7.3
2014-Oct-21 04:31N 40°01' E 024°51'7 7.3
2014-Oct-21 03:33N 40°02' E 025°00'7 7.5
2014-Oct-21 02:33N 40°03' E 025°10'8 7.3
2014-Oct-21 01:30N 40°03' E 025°20'7 7.3
2014-Oct-21 00:33N 40°03' E 025°29'8 7.1
2014-Oct-20 23:28N 40°03' E 025°39'14 7.1
2014-Oct-20 21:31N 40°01' E 025°57'128 7.0
2014-Oct-20 03:14N 40°52' E 028°31'5 7.2
2014-Oct-20 02:34N 40°52' E 028°38'8 7.4
2014-Oct-20 01:33N 40°54' E 028°47'6 6.2
2014-Oct-20 00:33N 40°57' E 028°55'0 0.2
2014-Oct-19 22:26N 40°57' E 028°54'0 0.0
2014-Oct-19 21:32N 40°57' E 028°54'0 0.0
2014-Oct-19 20:32N 40°57' E 028°54'0 0.0
2014-Oct-19 19:32N 40°57' E 028°54'0 0.0
2014-Oct-19 09:17N 40°57' E 028°54'1 0.4
2014-Oct-19 07:32N 40°57' E 028°55'46 3.0
2014-Oct-18 16:20N 41°30' E 029°38'266 5.2
2014-Oct-16 13:32N 43°36' E 034°57'7 6.9
2014-Oct-16 12:33N 43°41' E 035°03'7 6.8
2014-Oct-16 11:33N 43°46' E 035°09'10 6.8
2014-Oct-16 10:07N 43°54' E 035°18'12 6.8
2014-Oct-16 08:23N 44°02' E 035°28'14 6.8
2014-Oct-16 06:21N 44°13' E 035°41'7 7.2
2014-Oct-16 05:25N 44°18' E 035°48'20 7.1
2014-Oct-16 02:33N 44°33' E 036°07'  
Track history (hours):
 
Tides and Currents Weather Stations Pressure Air Temp Water Temp Dewpoint Dewpoint Depression Visibility Wind Speed Wind Dir Waves Ship Positions

Haci Arif Kaptan

Last reported at 2014-Oct-21 10:04 UTC. Time now 2014-Oct-21 13:29 UTC.
Position N 39°56' E 024°00'.

Length 130 m; draft 8.4 m.

Type: Cargo ship. MMSI: 271000494.

Date/timePositionNaut miles runAvg speedWind from/ knotsBaromVisibWave heightAir tempDewpointWater temp
2014-Oct-21 10:04N 39°56' E 024°00'4 6.9
2014-Oct-21 09:32N 39°56' E 024°05'7 6.9
2014-Oct-21 08:33N 39°57' E 024°14'8 6.9
2014-Oct-21 07:27N 39°57' E 024°24'7 7.1
2014-Oct-21 06:31N 39°58' E 024°32'7 7.4
2014-Oct-21 05:33N 39°60' E 024°41'8 7.3
2014-Oct-21 04:31N 40°01' E 024°51'7 7.3
2014-Oct-21 03:33N 40°02' E 025°00'7 7.5
2014-Oct-21 02:33N 40°03' E 025°10'8 7.3
2014-Oct-21 01:30N 40°03' E 025°20'7 7.3
2014-Oct-21 00:33N 40°03' E 025°29'8 7.1
2014-Oct-20 23:28N 40°03' E 025°39'14 7.1
2014-Oct-20 21:31N 40°01' E 025°57'128 7.0
2014-Oct-20 03:14N 40°52' E 028°31'5 7.2
2014-Oct-20 02:34N 40°52' E 028°38'8 7.4
2014-Oct-20 01:33N 40°54' E 028°47'6 6.2
2014-Oct-20 00:33N 40°57' E 028°55'0 0.2
2014-Oct-19 22:26N 40°57' E 028°54'0 0.0
2014-Oct-19 21:32N 40°57' E 028°54'0 0.0
2014-Oct-19 20:32N 40°57' E 028°54'0 0.0
2014-Oct-19 19:32N 40°57' E 028°54'0 0.0
2014-Oct-19 09:17N 40°57' E 028°54'1 0.4
2014-Oct-19 07:32N 40°57' E 028°55'46 3.0
2014-Oct-18 16:20N 41°30' E 029°38'266 5.2
2014-Oct-16 13:32N 43°36' E 034°57'7 6.9
2014-Oct-16 12:33N 43°41' E 035°03'7 6.8
2014-Oct-16 11:33N 43°46' E 035°09'10 6.8
2014-Oct-16 10:07N 43°54' E 035°18'12 6.8
2014-Oct-16 08:23N 44°02' E 035°28'14 6.8
2014-Oct-16 06:21N 44°13' E 035°41'7 7.2
2014-Oct-16 05:25N 44°18' E 035°48'20 7.1
2014-Oct-16 02:33N 44°33' E 036°07'  

Dump ship's entire track history